Relevés horaires Beauvechain (Belgique)


Relevés horaires à Beauvechain - Jeudi 29 Sept. 2022
Heure UTC1 Température [°C] Vent [km/h] Hum. [%] Pres.4 [hPa] Visi. [Km] Nébu. [octa] Préc.5 [mm] Cond.
2m. Res. Ros. Dir.2 Vit. Moy. Raf.3
23:00 9.0 9.0 7.5 SSO 3.7 -- 3.7 90 1008.5(1.2/3h) 17 -- -- --
22:00 9.3 9.3 7.3 SSO 3.7 -- 3.7 87 1008.1(1.6/3h) 19 -- -- --
21:00 9.5 9.5 7.6 NNO 1.9 -- 5.6 88 1007.7(1.8/3h) 20 -- -- --
20:00 9.6 9.6 7.5 NNO 1.9 -- 3.7 87 1007.1(1.8/3h) 20 -- -- --
19:00 10.1 10.1 7.7 NNO 1.9 -- 5.6 85 1006.3(1.8/3h) 20 -- -- --
18:00 10.8 10.8 6.9 NNO 1.9 -- 5.6 77 1005.7(1.7/3h) 20 -- -- --
17:00 12.3 12.3 8.4 NNO 1.9 -- 3.7 77 1005(1.5/3h) 20 -- -- --
16:00 13.3 13.3 6.6 NNO 1.9 -- 3.7 64 1004.2(1.1/3h) 20 -- -- --
15:00 13.6 13.6 6.5 NNO 3.7 -- 5.6 62 1003.7(0.6/3h) 15 6/8 -- --
14:00 13.9 13.9 6.1 NNO 1.9 -- 5.6 59 1003.3(0.6/3h) 15 3/8 -- --
13:00 13.8 13.8 6.0 NNO 1.9 -- 5.6 59 1003.1(0.6/3h) 15 4/8 -- --
12:00 12.7 12.7 7.0 NNO 1.9 -- 5.6 68 1003.2(0.8/3h) 15 4/8 -- --
11:00 12.9 12.9 6.6 NNO 1.9 -- 5.6 66 1002.7(1.1/3h) 15 3/8 -- --
10:00 11.9 11.9 6.7 NNO 1.9 -- 5.6 70 1002.5(1.3/3h) 15 3/8 -- --
09:00 11.3 11.3 7.0 NNO 1.9 -- 5.6 75 1002.2(1.4/3h) 15 2/8 -- --
08:00 8.4 8.4 6.0 SSO 3.7 -- 3.7 85 1001.7(1.1/3h) 15 5/8 -- --
07:00 6.9 6.9 5.1 NNO 1.9 -- 5.6 88 1001.3(1.0/3h) 15 1/8 -- --
06:00 6.1 6.1 4.4 S 3.7 -- 5.6 89 1001.1(0.6/3h) 15 1/8 -- --
05:00 5.6 5.6 4.3 NNO 3.7 -- 3.7 91 1000.7(0.3/3h) 15 1/8 -- --
04:00 6.3 6.3 4.5 NNO 1.9 -- 3.7 88 1000.3(0.0/3h) 18 -- -- --
03:00 6.5 6.5 4.6 NNO 1.9 -- 5.6 88 1000.3(-0.1/3h) 18 -- -- --
02:00 6.8 6.8 4.7 SO 3.7 -- 5.6 86 1000.2(-0.3/3h) 20 -- -- --
01:00 6.8 6.8 4.8 SO 3.7 -- 5.6 87 1000.2(-0.1/3h) 17 -- -- --
00:00 7.0 6.1 4.9 SSO 5.6 -- 5.6 86 1000.3(0.1/3h) 20 -- -- --

1 Coordinated Universal Time. Actuellement il est 19:00 locale et 18:00 UTC.

2 Le vent souffle depuis la direction indiquée vers la direction oposée.

3 Les rafales max. sont disponible 40 min après l'heure du relevé.

4 Pour les stations d'altitude (plus de 600m) le géopotentiel du niveau le plus proche de la pression obligatoire est indiqué.

5 Les stations disposant d'un diffuseur peuvent indiquer "trace". Cela signifie que des précipitations ont touchés le sol mais que la quantité est inférieure à 0.1 mm.

Récapitulatif de la journée
Température [°C] Vent [km/h] Ensoleillement4 [h] Precipitations totale5 [mm] Pression [Hpa]
Min1 Max.2 Moy.3 Max. Min Max.
4.7 14.7 0 5.6 0 h 0 min 0 1000.2 1008.5

1 Température minimale relevée entre 18:00 UTC la veille et 18:00 UTC le jour donné.

2 Température maximale relevée entre 06:00 UTC le jour donné et 06:00 UTC le lendemain.

3 Vent moyen de la journée basé sur les relevés horaires.

4 Ensoleillement en heures relevé entre 06:00 UTC la veille et 06:00 UTC le jour donné.

5 Précipitations totales tombées entre 06:00 UTC la jour donné et 06:00 UTC le lendemain.

Graphiques horaires